Time;durP1;ratioP1;P1;durP2;ratioP2;P2;SDS_P1;SDS_P2;PMS_P1;PMS_P2;Temp;Humidity;BMP_temperature;BMP_pressure;BME280_temperature;BME280_humidity;BME280_pressure;Samples;Min_cycle;Max_cycle;Signal;HPM_P1;HPM_P2
2023/06/16 00:01:53;;;;;;;17.48;15.52;;;19.10;99.90;;;;;;5124528;28;20036;-70
2023/06/16 00:04:25;;;;;;;18.40;15.07;;;19.20;99.90;;;;;;5134064;28;20081;-72
2023/06/16 00:06:58;;;;;;;24.80;18.67;;;19.10;99.90;;;;;;5144743;28;20620;-71
2023/06/16 00:09:28;;;;;;;19.15;17.05;;;19.10;99.90;;;;;;5144675;28;20607;-70
2023/06/16 00:11:59;;;;;;;20.02;17.05;;;19.10;99.90;;;;;;5144622;28;20121;-70
2023/06/16 00:14:31;;;;;;;17.27;15.73;;;19.00;99.90;;;;;;5144649;28;20059;-70
2023/06/16 00:17:05;;;;;;;18.20;16.20;;;19.20;99.90;;;;;;5144357;28;20034;-70
2023/06/16 00:19:37;;;;;;;18.27;16.38;;;19.20;99.90;;;;;;5144065;28;20117;-72
2023/06/16 00:22:09;;;;;;;18.90;17.05;;;19.20;99.90;;;;;;5144712;28;20074;-70
2023/06/16 00:24:40;;;;;;;20.85;18.02;;;19.10;99.90;;;;;;5144403;28;20030;-72
2023/06/16 00:27:11;;;;;;;19.73;17.67;;;19.10;99.90;;;;;;5144451;28;20034;-72
2023/06/16 00:29:42;;;;;;;19.17;17.27;;;19.00;99.90;;;;;;5143396;28;20054;-70
2023/06/16 00:32:12;;;;;;;20.63;18.52;;;19.00;99.90;;;;;;5142438;28;20031;-70
2023/06/16 00:34:46;;;;;;;22.23;19.95;;;19.00;99.90;;;;;;5144291;28;20027;-70
2023/06/16 00:37:16;;;;;;;20.80;18.58;;;18.80;99.90;;;;;;5144347;28;20034;-70
2023/06/16 00:39:47;;;;;;;21.90;19.77;;;18.80;99.90;;;;;;5144224;28;20230;-72
2023/06/16 00:42:18;;;;;;;21.52;19.25;;;18.90;99.90;;;;;;5144694;28;20102;-70
2023/06/16 00:44:49;;;;;;;27.83;21.02;;;18.90;99.90;;;;;;5147840;28;20023;-71
2023/06/16 00:47:20;;;;;;;21.52;19.38;;;18.80;99.90;;;;;;5147441;28;20018;-70
2023/06/16 00:49:55;;;;;;;24.20;21.80;;;18.90;99.90;;;;;;5147363;28;20061;-73
2023/06/16 00:52:35;;;;;;;23.02;20.70;;;18.90;99.90;;;;;;5147662;28;20023;-73
2023/06/16 00:55:08;;;;;;;20.42;18.52;;;19.00;99.90;;;;;;5147725;28;20023;-72
2023/06/16 00:57:41;;;;;;;21.85;19.70;;;19.10;99.90;;;;;;5147556;28;20073;-70
2023/06/16 01:00:12;;;;;;;21.30;19.10;;;19.00;99.90;;;;;;5144810;28;20053;-71
2023/06/16 01:02:46;;;;;;;20.08;18.25;;;19.10;99.90;;;;;;5147310;28;20031;-73
2023/06/16 01:05:21;;;;;;;21.77;19.63;;;19.10;99.90;;;;;;5147442;28;20035;-71
2023/06/16 01:08:15;;;;;;;19.15;17.15;;;19.10;99.90;;;;;;5147393;28;20035;-70
2023/06/16 01:10:59;;;;;;;20.17;17.05;;;19.20;99.90;;;;;;5127375;28;20023;-72
2023/06/16 01:13:42;;;;;;;21.63;19.63;;;19.20;99.90;;;;;;5127422;28;20034;-69
2023/06/16 01:16:16;;;;;;;23.05;19.98;;;19.00;99.90;;;;;;5127341;29;20038;-71
2023/06/16 01:18:48;;;;;;;31.15;18.48;;;19.10;99.90;;;;;;5141463;28;20146;-71
2023/06/16 01:21:39;;;;;;;21.15;18.85;;;19.10;99.90;;;;;;5147821;28;20493;-72
2023/06/16 01:24:18;;;;;;;20.95;18.85;;;19.10;99.90;;;;;;5147389;28;20025;-71
2023/06/16 01:26:53;;;;;;;20.90;18.58;;;19.10;99.90;;;;;;5147188;28;20058;-72
2023/06/16 01:29:25;;;;;;;19.85;17.83;;;19.20;99.90;;;;;;5132422;28;20050;-70
2023/06/16 01:32:00;;;;;;;20.13;16.75;;;19.20;99.90;;;;;;5126979;28;20427;-70
2023/06/16 01:34:34;;;;;;;20.63;18.67;;;19.20;99.90;;;;;;5139448;28;20047;-71
2023/06/16 01:37:07;;;;;;;20.73;18.58;;;19.20;99.90;;;;;;5146894;28;20397;-70
2023/06/16 01:39:38;;;;;;;20.17;16.63;;;19.20;99.90;;;;;;5146647;28;20494;-70
2023/06/16 01:42:10;;;;;;;20.45;18.25;;;19.20;99.90;;;;;;5146743;28;20356;-70
2023/06/16 01:44:42;;;;;;;19.52;17.52;;;19.10;99.90;;;;;;5146791;28;20027;-72
2023/06/16 01:47:13;;;;;;;19.23;15.13;;;19.10;99.90;;;;;;5146538;28;20030;-70
2023/06/16 01:49:44;;;;;;;18.83;15.73;;;19.20;99.90;;;;;;5130633;28;20395;-71
2023/06/16 01:52:16;;;;;;;15.43;13.95;;;19.20;99.90;;;;;;5126646;28;20345;-70
2023/06/16 01:54:47;;;;;;;15.80;14.13;;;19.20;99.90;;;;;;5126488;28;20110;-70
2023/06/16 01:57:17;;;;;;;15.40;13.93;;;19.20;99.90;;;;;;5126300;28;20595;-70
2023/06/16 01:59:55;;;;;;;15.15;13.75;;;19.20;99.90;;;;;;5137906;28;20066;-72
2023/06/16 02:02:29;;;;;;;18.95;16.95;;;19.20;99.90;;;;;;5146387;28;20023;-70
2023/06/16 02:05:03;;;;;;;16.15;14.52;;;19.10;99.90;;;;;;5146361;28;20411;-70
2023/06/16 02:07:41;;;;;;;17.08;15.48;;;19.10;99.90;;;;;;5144954;28;20033;-70
2023/06/16 02:10:13;;;;;;;19.83;18.00;;;19.10;99.90;;;;;;5145086;28;20034;-70
2023/06/16 02:12:44;;;;;;;19.80;17.90;;;19.10;99.90;;;;;;5126278;28;20594;-72
2023/06/16 02:15:20;;;;;;;16.98;15.23;;;19.00;99.90;;;;;;5135374;28;20097;-72
2023/06/16 02:17:52;;;;;;;18.02;16.40;;;19.10;99.90;;;;;;5145861;28;20037;-71
2023/06/16 02:20:24;;;;;;;21.70;16.88;;;19.10;99.90;;;;;;5145827;28;20035;-70
2023/06/16 02:22:55;;;;;;;16.17;14.10;;;19.00;99.90;;;;;;5146009;28;20494;-72
2023/06/16 02:25:26;;;;;;;17.15;15.55;;;19.00;99.90;;;;;;5144905;28;20031;-70
2023/06/16 02:27:57;;;;;;;17.48;15.02;;;19.10;99.90;;;;;;5134203;28;20031;-71
2023/06/16 02:30:28;;;;;;;16.88;13.95;;;19.10;99.90;;;;;;5145917;28;20031;-70
2023/06/16 02:32:58;;;;;;;14.30;12.98;;;19.10;99.90;;;;;;5145848;28;20031;-70
2023/06/16 02:35:29;;;;;;;15.95;14.27;;;19.30;99.90;;;;;;5145939;28;20033;-72
2023/06/16 02:38:00;;;;;;;15.82;14.32;;;19.20;99.90;;;;;;5145959;28;20031;-70
2023/06/16 02:40:31;;;;;;;15.85;13.70;;;19.20;99.90;;;;;;5145433;28;20513;-70
2023/06/16 02:43:02;;;;;;;17.63;15.75;;;19.30;99.90;;;;;;5145751;28;20053;-70
2023/06/16 02:45:33;;;;;;;17.13;14.05;;;19.20;99.90;;;;;;5145681;28;20482;-70
2023/06/16 02:48:04;;;;;;;17.20;15.40;;;19.10;99.90;;;;;;5145445;28;20462;-70
2023/06/16 02:50:35;;;;;;;17.42;15.65;;;19.10;99.90;;;;;;5145325;28;20055;-70
2023/06/16 02:53:06;;;;;;;16.33;14.63;;;19.20;99.90;;;;;;5145559;28;20026;-70
2023/06/16 02:55:38;;;;;;;16.42;14.25;;;19.20;99.90;;;;;;5139674;28;20031;-70
2023/06/16 02:58:09;;;;;;;15.90;14.30;;;19.10;99.90;;;;;;5145434;28;20039;-70
2023/06/16 03:00:39;;;;;;;17.15;14.35;;;19.20;99.90;;;;;;5145134;28;20093;-72
2023/06/16 03:03:10;;;;;;;19.27;14.68;;;19.30;99.90;;;;;;5145426;28;20027;-70
2023/06/16 03:05:42;;;;;;;16.02;14.43;;;19.20;99.90;;;;;;5144808;28;20479;-71
2023/06/16 03:08:12;;;;;;;20.45;14.30;;;19.20;99.90;;;;;;5126542;28;20027;-71
2023/06/16 03:10:43;;;;;;;16.73;15.13;;;19.20;99.90;;;;;;5132304;28;20474;-74
2023/06/16 03:13:14;;;;;;;16.33;14.52;;;19.20;99.90;;;;;;5145239;28;20553;-70
2023/06/16 03:15:45;;;;;;;17.60;15.15;;;19.30;99.90;;;;;;5145017;28;20459;-70
2023/06/16 03:18:16;;;;;;;17.00;14.88;;;19.30;99.90;;;;;;5144864;28;20113;-71
2023/06/16 03:20:47;;;;;;;17.15;14.30;;;19.40;99.90;;;;;;5144980;28;20043;-70
2023/06/16 03:23:18;;;;;;;15.73;13.80;;;19.50;99.90;;;;;;5144699;28;20034;-72
2023/06/16 03:25:49;;;;;;;16.70;14.68;;;19.60;99.90;;;;;;5144915;28;20023;-72
2023/06/16 03:28:20;;;;;;;24.40;13.88;;;19.60;99.90;;;;;;5134167;28;20050;-72
2023/06/16 03:30:52;;;;;;;20.83;13.95;;;19.60;99.90;;;;;;5125025;28;20043;-70
2023/06/16 03:33:23;;;;;;;14.68;13.23;;;19.70;99.90;;;;;;5125032;28;20158;-71
2023/06/16 03:35:54;;;;;;;18.25;14.38;;;19.70;99.90;;;;;;5131678;28;20102;-71
2023/06/16 03:38:25;;;;;;;14.63;12.93;;;19.70;99.90;;;;;;5144985;28;20049;-73
2023/06/16 03:40:56;;;;;;;19.48;13.98;;;20.00;99.90;;;;;;5144871;28;20038;-73
2023/06/16 03:43:27;;;;;;;16.25;14.32;;;19.90;99.90;;;;;;5144985;28;20402;-71
2023/06/16 03:45:58;;;;;;;17.23;14.15;;;20.00;99.90;;;;;;5144855;28;20031;-71
2023/06/16 03:48:29;;;;;;;15.90;14.20;;;20.00;99.90;;;;;;5144714;28;20026;-70
2023/06/16 03:51:00;;;;;;;22.13;13.85;;;20.00;99.90;;;;;;5145032;28;20062;-70
2023/06/16 03:53:30;;;;;;;19.98;15.10;;;20.10;99.90;;;;;;5133527;28;20603;-72
2023/06/16 03:56:01;;;;;;;18.98;13.88;;;20.20;99.90;;;;;;5125674;28;20122;-72
2023/06/16 03:58:32;;;;;;;19.13;13.88;;;20.30;99.90;;;;;;5124615;29;20024;-71
2023/06/16 04:01:03;;;;;;;17.85;15.40;;;20.40;99.90;;;;;;5124632;28;20412;-72
2023/06/16 04:03:34;;;;;;;18.73;14.70;;;20.50;99.90;;;;;;5124693;28;20032;-70
2023/06/16 04:06:05;;;;;;;19.35;14.40;;;20.50;99.90;;;;;;5124818;28;20046;-70
2023/06/16 04:08:36;;;;;;;19.98;15.27;;;20.50;99.90;;;;;;5144686;28;20498;-70
2023/06/16 04:11:07;;;;;;;17.20;14.38;;;20.50;99.90;;;;;;5144573;28;20030;-70
2023/06/16 04:13:38;;;;;;;17.75;14.07;;;20.60;99.90;;;;;;5144576;28;20564;-70
2023/06/16 04:16:09;;;;;;;18.02;13.82;;;20.70;99.90;;;;;;5144557;28;20418;-71
2023/06/16 04:18:40;;;;;;;20.88;14.70;;;20.80;99.90;;;;;;5146967;28;20047;-70
2023/06/16 04:21:11;;;;;;;16.58;14.75;;;20.90;99.90;;;;;;5146666;28;20035;-70
2023/06/16 04:23:42;;;;;;;19.05;14.43;;;20.90;99.90;;;;;;5128346;29;20038;-71
2023/06/16 04:26:13;;;;;;;19.38;13.70;;;20.90;99.90;;;;;;5136639;28;20475;-72
2023/06/16 04:28:44;;;;;;;17.50;13.88;;;20.90;99.90;;;;;;5148301;28;20069;-70
2023/06/16 04:31:15;;;;;;;15.38;13.77;;;21.00;99.90;;;;;;5156827;28;20022;-70
2023/06/16 04:33:46;;;;;;;16.42;13.40;;;21.00;99.90;;;;;;5168237;28;20033;-69
2023/06/16 04:36:19;;;;;;;22.80;13.60;;;21.00;99.90;;;;;;5152766;28;20034;-70
2023/06/16 04:38:51;;;;;;;16.70;11.65;;;21.20;99.90;;;;;;5147850;28;20031;-70
2023/06/16 04:41:22;;;;;;;20.63;12.88;;;21.20;99.90;;;;;;5147841;28;20046;-69
2023/06/16 04:43:53;;;;;;;17.88;12.57;;;21.20;99.90;;;;;;5147922;28;20018;-70
2023/06/16 04:46:24;;;;;;;15.25;11.88;;;21.30;99.90;;;;;;5147822;28;20030;-70
2023/06/16 04:48:55;;;;;;;17.45;12.55;;;21.40;99.90;;;;;;5155811;28;20030;-70
2023/06/16 04:51:28;;;;;;;17.92;12.05;;;21.40;99.90;;;;;;5152240;28;20480;-70
2023/06/16 04:54:00;;;;;;;19.52;12.93;;;21.30;99.90;;;;;;5147484;28;20030;-69
2023/06/16 04:56:30;;;;;;;16.42;12.35;;;21.40;99.90;;;;;;5147554;28;20035;-69
2023/06/16 04:59:01;;;;;;;15.43;11.85;;;21.50;99.90;;;;;;5147558;28;20491;-71
2023/06/16 05:01:32;;;;;;;17.27;10.85;;;21.50;99.90;;;;;;5128472;28;20078;-69
2023/06/16 05:04:03;;;;;;;20.13;12.40;;;21.60;99.90;;;;;;5127544;29;20531;-70
2023/06/16 05:06:37;;;;;;;17.80;11.18;;;21.60;99.90;;;;;;5126870;28;20480;-70
2023/06/16 05:09:08;;;;;;;19.50;11.35;;;21.50;99.90;;;;;;5127889;28;20383;-69
2023/06/16 05:11:39;;;;;;;14.60;10.70;;;21.50;99.90;;;;;;5144556;28;20027;-75
2023/06/16 05:14:10;;;;;;;14.70;11.38;;;21.40;99.90;;;;;;5143117;28;20030;-69
2023/06/16 05:16:41;;;;;;;18.38;12.10;;;21.60;99.90;;;;;;5143249;28;20035;-68
2023/06/16 05:19:12;;;;;;;16.90;11.25;;;21.70;99.90;;;;;;5151314;28;20536;-69
2023/06/16 05:21:43;;;;;;;17.42;11.38;;;21.70;99.90;;;;;;5156535;28;20574;-71
2023/06/16 05:24:14;;;;;;;20.48;12.05;;;21.80;99.90;;;;;;5153550;28;20098;-68
2023/06/16 05:26:45;;;;;;;14.52;10.70;;;21.80;99.90;;;;;;5151798;28;20058;-68
2023/06/16 05:29:16;;;;;;;15.85;12.32;;;21.90;99.90;;;;;;5146358;28;20027;-68
2023/06/16 05:31:47;;;;;;;18.42;12.13;;;21.90;99.90;;;;;;5153122;28;20030;-68
2023/06/16 05:34:23;;;;;;;16.75;12.10;;;22.00;99.90;;;;;;5160590;28;20027;-68
2023/06/16 05:36:57;;;;;;;15.77;11.68;;;22.00;99.90;;;;;;5155613;28;20061;-70
2023/06/16 05:39:31;;;;;;;16.05;10.15;;;22.20;99.90;;;;;;5156567;28;20038;-69
2023/06/16 05:42:14;;;;;;;17.65;9.80;;;22.30;99.90;;;;;;5147500;28;20041;-71
2023/06/16 05:44:47;;;;;;;13.18;9.75;;;22.20;99.90;;;;;;5150719;28;20477;-68
2023/06/16 05:47:30;;;;;;;15.18;10.13;;;22.20;99.90;;;;;;5152901;28;20735;-68
2023/06/16 05:50:17;;;;;;;15.80;9.70;;;22.40;99.90;;;;;;5145345;28;20046;-68
2023/06/16 05:52:51;;;;;;;16.27;9.80;;;22.60;99.90;;;;;;5150640;28;20046;-68
2023/06/16 05:55:33;;;;;;;14.60;10.65;;;22.70;99.90;;;;;;5149570;28;20023;-68
2023/06/16 05:58:13;;;;;;;14.07;10.57;;;22.70;99.90;;;;;;5153524;28;20041;-75
2023/06/16 06:00:54;;;;;;;18.25;11.80;;;22.50;99.90;;;;;;5146576;28;20750;-68
2023/06/16 06:03:30;;;;;;;14.70;9.40;;;22.50;99.90;;;;;;5156446;28;20444;-69
2023/06/16 06:06:11;;;;;;;20.15;10.02;;;22.40;99.90;;;;;;5148109;28;20034;-69
2023/06/16 06:08:44;;;;;;;15.93;9.63;;;22.70;99.90;;;;;;5144615;28;20121;-74
2023/06/16 06:11:26;;;;;;;20.58;10.30;;;22.70;99.90;;;;;;5125894;28;20039;-75
2023/06/16 06:14:01;;;;;;;14.10;10.07;;;22.60;99.90;;;;;;5125706;28;20106;-75
2023/06/16 06:16:41;;;;;;;21.33;10.15;;;22.70;99.90;;;;;;5125429;28;20035;-76
2023/06/16 06:19:13;;;;;;;22.48;10.05;;;22.90;99.90;;;;;;5125286;28;20051;-71
2023/06/16 06:21:47;;;;;;;14.90;9.85;;;23.10;99.90;;;;;;5125948;28;20035;-74
2023/06/16 06:24:24;;;;;;;21.13;11.48;;;22.90;99.90;;;;;;5125829;28;20031;-75
2023/06/16 06:26:58;;;;;;;18.40;11.80;;;23.00;99.90;;;;;;5126036;28;20035;-74
2023/06/16 06:29:32;;;;;;;15.98;11.57;;;23.00;99.90;;;;;;5125960;28;20539;-75
2023/06/16 06:32:08;;;;;;;18.40;12.60;;;23.00;99.90;;;;;;5125867;28;20031;-69
2023/06/16 06:34:44;;;;;;;16.48;12.23;;;23.00;99.90;;;;;;5125756;28;20050;-72
2023/06/16 06:37:18;;;;;;;19.70;13.20;;;23.20;99.90;;;;;;5138273;28;20031;-75
2023/06/16 06:39:52;;;;;;;21.05;12.50;;;23.10;99.90;;;;;;5144531;28;20403;-72
2023/06/16 06:42:29;;;;;;;22.17;11.85;;;23.30;99.90;;;;;;5144781;28;20025;-73
2023/06/16 06:45:11;;;;;;;15.18;11.35;;;23.10;99.90;;;;;;5131234;28;20497;-74
2023/06/16 06:47:47;;;;;;;18.67;12.48;;;23.20;99.90;;;;;;5142785;28;20050;-73
2023/06/16 06:50:21;;;;;;;21.35;12.38;;;23.50;99.90;;;;;;5144573;28;20054;-71
2023/06/16 06:52:58;;;;;;;17.23;11.15;;;23.20;99.90;;;;;;5125513;29;20375;-75
2023/06/16 06:55:34;;;;;;;19.00;11.10;;;23.10;99.90;;;;;;5125631;29;20107;-76
2023/06/16 06:58:16;;;;;;;24.08;11.75;;;23.10;99.90;;;;;;5125559;28;20019;-75
2023/06/16 07:00:56;;;;;;;22.50;11.80;;;23.20;99.90;;;;;;5125170;28;20035;-74
2023/06/16 07:03:33;;;;;;;20.92;11.52;;;23.40;99.90;;;;;;5125262;28;20428;-74
2023/06/16 07:06:06;;;;;;;20.25;11.32;;;23.60;99.90;;;;;;5136114;28;20030;-74
2023/06/16 07:09:01;;;;;;;17.88;11.00;;;23.40;99.90;;;;;;5144548;28;20085;-73
2023/06/16 07:11:41;;;;;;;17.52;11.13;;;23.70;99.90;;;;;;5131620;28;20035;-73
2023/06/16 07:14:17;;;;;;;21.98;11.15;;;23.70;99.90;;;;;;5125022;28;20066;-74
2023/06/16 07:17:02;;;;;;;15.77;11.18;;;23.80;99.90;;;;;;5140878;28;20039;-75
2023/06/16 07:19:46;;;;;;;16.13;10.55;;;23.80;99.90;;;;;;5144706;28;20035;-74
2023/06/16 07:22:25;;;;;;;16.75;9.65;;;23.70;99.90;;;;;;5144888;28;20035;-75
2023/06/16 07:24:58;;;;;;;15.35;9.05;;;24.20;99.90;;;;;;5144794;28;20356;-71
2023/06/16 07:27:38;;;;;;;19.70;10.40;;;23.40;99.90;;;;;;5143780;28;20554;-74
2023/06/16 07:30:16;;;;;;;;;;;23.90;99.90;;;;;;5145234;28;20046;-75
2023/06/16 07:32:52;;;;;;;18.85;9.70;;;24.00;99.90;;;;;;5141669;28;19923;-75
2023/06/16 07:35:28;;;;;;;17.83;9.27;;;24.20;99.90;;;;;;5124597;28;20042;-74
2023/06/16 07:38:07;;;;;;;16.98;9.07;;;24.20;99.90;;;;;;5124927;28;20031;-74
2023/06/16 07:40:44;;;;;;;17.93;7.93;;;24.20;99.90;;;;;;5124737;28;20496;-69
2023/06/16 07:43:21;;;;;;;13.07;8.02;;;24.10;99.90;;;;;;5133290;28;20093;-70
2023/06/16 07:46:01;;;;;;;18.85;8.50;;;24.20;99.90;;;;;;5139509;28;20062;-69
2023/06/16 07:48:37;;;;;;;19.00;8.98;;;24.30;99.90;;;;;;5144618;28;20030;-68
2023/06/16 07:51:32;;;;;;;14.40;8.93;;;24.40;99.90;;;;;;5144690;28;20047;-68
2023/06/16 07:54:09;;;;;;;18.08;9.13;;;24.40;99.90;;;;;;5148455;28;20055;-68
2023/06/16 07:56:45;;;;;;;17.02;9.43;;;24.60;99.90;;;;;;5148619;28;20098;-76
2023/06/16 07:59:17;;;;;;;17.10;9.95;;;24.70;99.90;;;;;;5148342;28;20039;-69
2023/06/16 08:01:51;;;;;;;15.00;9.18;;;24.80;99.90;;;;;;5148710;28;20085;-75
2023/06/16 08:04:29;;;;;;;16.52;9.20;;;25.00;99.90;;;;;;5148507;28;20026;-69
2023/06/16 08:07:02;;;;;;;16.73;9.93;;;24.80;99.90;;;;;;5148734;28;20038;-68
2023/06/16 08:09:42;;;;;;;19.58;9.82;;;24.80;99.90;;;;;;5148549;28;20046;-68
2023/06/16 08:12:15;;;;;;;21.15;9.73;;;25.30;99.90;;;;;;5147748;28;20081;-68
2023/06/16 08:14:51;;;;;;;17.90;9.65;;;25.10;99.90;;;;;;5141671;28;20031;-74
2023/06/16 08:17:24;;;;;;;18.90;9.52;;;25.20;99.90;;;;;;5148117;28;20491;-76
2023/06/16 08:19:59;;;;;;;13.75;9.45;;;25.30;99.90;;;;;;5147934;28;20490;-74
2023/06/16 08:22:33;;;;;;;16.50;8.77;;;25.40;99.90;;;;;;5148290;28;20053;-75
2023/06/16 08:25:07;;;;;;;20.95;9.50;;;25.30;99.90;;;;;;5147697;28;20147;-75
2023/06/16 08:27:40;;;;;;;17.10;10.13;;;25.30;99.90;;;;;;5148301;28;20463;-76
2023/06/16 08:30:16;;;;;;;22.92;9.93;;;25.30;99.90;;;;;;5148016;28;20023;-75
2023/06/16 08:32:53;;;;;;;21.08;9.57;;;25.20;99.90;;;;;;5146601;28;20106;-75
2023/06/16 08:35:34;;;;;;;20.65;8.43;;;25.20;99.90;;;;;;5147800;28;20033;-75
2023/06/16 08:38:13;;;;;;;18.40;8.23;;;25.20;99.90;;;;;;5147306;28;20031;-75
2023/06/16 08:40:55;;;;;;;16.40;8.52;;;25.20;99.90;;;;;;5157611;28;20490;-75
2023/06/16 08:43:28;;;;;;;17.38;9.20;;;25.60;99.90;;;;;;5144989;28;20437;-69
2023/06/16 08:46:13;;;;;;;20.75;8.57;;;25.30;99.90;;;;;;5162415;28;20027;-69
2023/06/16 08:48:45;;;;;;;15.82;7.93;;;25.20;99.90;;;;;;5147054;28;20564;-70
2023/06/16 08:51:26;;;;;;;18.20;8.23;;;25.20;99.90;;;;;;5147366;28;20262;-75
2023/06/16 08:54:10;;;;;;;18.90;9.68;;;25.20;99.90;;;;;;5147568;28;20019;-72
2023/06/16 08:56:50;;;;;;;13.63;8.10;;;25.50;99.90;;;;;;5147308;28;20803;-72
2023/06/16 08:59:31;;;;;;;19.38;8.95;;;25.50;99.90;;;;;;5146990;28;20062;-74
2023/06/16 09:02:06;;;;;;;17.58;8.13;;;25.20;99.90;;;;;;5151163;28;20030;-72
2023/06/16 09:04:41;;;;;;;16.17;8.45;;;25.50;99.90;;;;;;5150547;28;20069;-71
2023/06/16 09:07:19;;;;;;;22.83;8.52;;;25.40;99.90;;;;;;5167247;28;20569;-74
2023/06/16 09:09:55;;;;;;;20.80;8.32;;;25.10;99.90;;;;;;5167323;28;20011;-68
2023/06/16 09:12:36;;;;;;;22.10;9.07;;;25.20;99.90;;;;;;5133397;28;20037;-75
2023/06/16 09:15:13;;;;;;;15.48;9.15;;;25.10;99.90;;;;;;5126941;28;20019;-75
2023/06/16 09:17:49;;;;;;;14.38;8.38;;;24.90;99.90;;;;;;5126658;28;20027;-76
2023/06/16 09:20:26;;;;;;;15.70;8.95;;;24.60;99.90;;;;;;5126092;28;20043;-72
2023/06/16 09:23:02;;;;;;;16.92;8.68;;;24.70;99.90;;;;;;5125785;28;20039;-74
2023/06/16 09:25:37;;;;;;;14.52;8.50;;;24.90;99.90;;;;;;5127256;28;20518;-72
2023/06/16 09:28:24;;;;;;;22.58;8.68;;;25.10;99.90;;;;;;5127027;28;20038;-74
2023/06/16 09:31:11;;;;;;;15.18;8.90;;;25.60;99.90;;;;;;5126882;28;20035;-73
2023/06/16 09:33:46;;;;;;;19.42;9.52;;;25.60;99.90;;;;;;5127044;28;20066;-74
2023/06/16 09:36:28;;;;;;;15.48;8.27;;;25.60;99.90;;;;;;5126966;28;20045;-73
2023/06/16 09:39:07;;;;;;;17.17;8.95;;;26.10;99.90;;;;;;5126728;28;20090;-74
2023/06/16 09:41:45;;;;;;;20.10;10.63;;;25.90;99.90;;;;;;5126833;28;20070;-74
2023/06/16 09:44:19;;;;;;;14.35;9.15;;;25.60;99.90;;;;;;5126625;28;20054;-75
2023/06/16 09:46:58;;;;;;;11.10;8.35;;;25.40;99.90;;;;;;5139796;28;20105;-75
2023/06/16 09:49:32;;;;;;;13.27;7.82;;;25.70;99.90;;;;;;5145716;28;20039;-70
2023/06/16 09:52:05;;;;;;;17.77;9.65;;;26.00;99.90;;;;;;5146050;28;20059;-69
2023/06/16 09:54:43;;;;;;;17.95;10.30;;;25.90;99.90;;;;;;5145926;28;20021;-70
2023/06/16 09:57:19;;;;;;;14.90;9.43;;;25.80;99.90;;;;;;5144055;28;20367;-74
2023/06/16 09:59:59;;;;;;;15.55;9.77;;;26.10;99.90;;;;;;5143448;28;20031;-74
2023/06/16 10:02:40;;;;;;;17.02;10.20;;;26.10;99.90;;;;;;5126610;28;20031;-75
2023/06/16 10:05:16;;;;;;;27.73;10.20;;;25.90;99.90;;;;;;5126372;29;20034;-73
2023/06/16 10:07:57;;;;;;;19.35;8.95;;;25.90;99.90;;;;;;5126419;28;20023;-75
2023/06/16 10:10:43;;;;;;;15.38;8.75;;;26.30;99.90;;;;;;5126247;29;20031;-72
2023/06/16 10:13:20;;;;;;;17.10;8.43;;;26.10;99.90;;;;;;5126315;28;20030;-76
2023/06/16 10:15:59;;;;;;;14.75;8.27;;;26.30;99.90;;;;;;5126042;28;20085;-75
2023/06/16 10:18:37;;;;;;;16.80;9.25;;;26.30;99.90;;;;;;5126140;28;20034;-75
2023/06/16 10:21:13;;;;;;;10.80;7.35;;;25.60;99.90;;;;;;5126032;28;20054;-75
2023/06/16 10:23:47;;;;;;;14.38;7.65;;;26.20;99.90;;;;;;5126130;28;20031;-75
2023/06/16 10:26:23;;;;;;;12.95;7.70;;;26.00;99.90;;;;;;5126304;28;20047;-73
2023/06/16 10:28:57;;;;;;;13.18;7.05;;;25.80;99.90;;;;;;5125876;28;20046;-75
2023/06/16 10:31:39;;;;;;;13.43;7.93;;;25.60;99.90;;;;;;5125725;28;20109;-74
2023/06/16 10:34:38;;;;;;;18.77;7.97;;;25.20;99.90;;;;;;5125827;28;20034;-75
2023/06/16 10:37:10;;;;;;;15.70;7.93;;;25.30;99.90;;;;;;5125897;28;20038;-68
2023/06/16 10:39:49;;;;;;;12.75;7.97;;;25.00;99.90;;;;;;5135883;28;20302;-69
2023/06/16 10:42:40;;;;;;;13.75;7.95;;;25.20;99.90;;;;;;5125983;28;20407;-68
2023/06/16 10:45:36;;;;;;;14.63;8.25;;;25.20;99.90;;;;;;5141771;28;20497;-68
2023/06/16 10:48:12;;;;;;;15.60;9.55;;;25.10;99.90;;;;;;5144965;28;20039;-68
2023/06/16 10:50:59;;;;;;;15.43;9.82;;;25.10;99.90;;;;;;5143255;28;20122;-70
2023/06/16 10:53:42;;;;;;;16.73;9.80;;;25.00;99.90;;;;;;5145561;28;20035;-68
2023/06/16 10:56:21;;;;;;;15.50;8.57;;;25.00;99.90;;;;;;5145378;28;20097;-68
2023/06/16 10:59:01;;;;;;;16.63;9.27;;;25.00;99.90;;;;;;5142576;28;20498;-75
2023/06/16 11:01:46;;;;;;;17.13;8.48;;;25.20;99.90;;;;;;5143268;28;20031;-76
2023/06/16 11:04:24;;;;;;;15.05;8.63;;;25.20;99.90;;;;;;5143509;28;20414;-75
2023/06/16 11:07:11;;;;;;;12.93;8.00;;;25.10;99.90;;;;;;5142871;28;20027;-78
2023/06/16 11:10:07;;;;;;;14.10;7.85;;;25.00;99.90;;;;;;5125296;29;20042;-75
2023/06/16 11:12:44;;;;;;;12.18;8.15;;;25.00;99.90;;;;;;5125362;28;20019;-76
2023/06/16 11:15:25;;;;;;;15.57;8.88;;;24.80;99.90;;;;;;5139543;28;20153;-75
2023/06/16 11:18:09;;;;;;;15.38;8.45;;;24.90;99.90;;;;;;5145111;28;20030;-69
2023/06/16 11:20:50;;;;;;;19.67;9.95;;;24.90;99.90;;;;;;5145140;28;20042;-70
2023/06/16 11:23:25;;;;;;;13.00;8.60;;;25.00;99.90;;;;;;5145271;28;20082;-77
2023/06/16 11:26:23;;;;;;;19.55;10.77;;;25.10;99.90;;;;;;5144637;28;20023;-75
2023/06/16 11:29:00;;;;;;;20.33;11.23;;;25.10;99.90;;;;;;5143896;28;20070;-73
2023/06/16 11:31:39;;;;;;;18.88;10.02;;;24.90;99.90;;;;;;5144923;28;20026;-72
2023/06/16 11:34:15;;;;;;;15.15;8.63;;;24.90;99.90;;;;;;5145249;28;20061;-74
2023/06/16 11:36:57;;;;;;;15.38;9.98;;;24.70;99.90;;;;;;5144772;28;20023;-70
2023/06/16 11:39:41;;;;;;;13.60;8.68;;;24.80;99.90;;;;;;5144782;28;20073;-69
2023/06/16 11:42:22;;;;;;;19.95;10.00;;;24.70;99.90;;;;;;5145033;28;20039;-75
2023/06/16 11:44:55;;;;;;;12.93;8.43;;;24.70;99.90;;;;;;5144470;28;20059;-75
2023/06/16 11:47:27;;;;;;;15.65;8.18;;;24.80;99.90;;;;;;5144737;28;20478;-69
2023/06/16 11:50:11;;;;;;;14.23;9.18;;;24.70;99.90;;;;;;5144221;28;20042;-69
2023/06/16 11:52:47;;;;;;;17.45;9.68;;;24.90;99.90;;;;;;5144640;28;20049;-69
2023/06/16 11:55:23;;;;;;;17.85;10.13;;;24.60;99.90;;;;;;5144590;28;20081;-69
2023/06/16 11:57:59;;;;;;;13.40;9.82;;;24.60;99.90;;;;;;5144658;28;20030;-69
2023/06/16 12:00:34;;;;;;;18.80;10.60;;;24.50;99.90;;;;;;5144616;28;20047;-70
2023/06/16 12:03:09;;;;;;;22.55;9.75;;;24.70;99.90;;;;;;5144736;28;20030;-76
2023/06/16 12:05:43;;;;;;;18.30;9.55;;;24.50;99.90;;;;;;5144682;28;20390;-75
2023/06/16 12:08:36;;;;;;;18.70;9.82;;;24.50;99.90;;;;;;5142194;28;20023;-75
2023/06/16 12:11:28;;;;;;;18.77;9.05;;;24.50;99.90;;;;;;5141860;28;20090;-71
2023/06/16 12:14:04;;;;;;;19.48;9.68;;;24.50;99.90;;;;;;5124240;28;20019;-75
2023/06/16 12:16:41;;;;;;;22.98;8.77;;;24.60;99.90;;;;;;5124410;28;20042;-74
2023/06/16 12:19:27;;;;;;;12.75;8.60;;;24.50;99.90;;;;;;5124422;28;20066;-76
2023/06/16 12:22:05;;;;;;;14.15;8.60;;;24.60;99.90;;;;;;5124607;28;20051;-69
2023/06/16 12:24:40;;;;;;;16.70;8.38;;;25.30;99.90;;;;;;5124345;28;20023;-74
2023/06/16 12:27:29;;;;;;;15.10;8.48;;;24.80;99.90;;;;;;5124631;28;20368;-73
2023/06/16 12:30:04;;;;;;;19.17;9.55;;;25.10;99.90;;;;;;5124958;28;20058;-75
2023/06/16 12:32:45;;;;;;;13.88;7.65;;;25.20;99.90;;;;;;5124535;28;20039;-75
2023/06/16 12:35:37;;;;;;;10.32;8.18;;;25.10;99.90;;;;;;5124500;28;20028;-75
2023/06/16 12:38:11;;;;;;;13.82;8.10;;;25.00;99.90;;;;;;5124882;28;20096;-75
2023/06/16 12:40:45;;;;;;;13.18;7.93;;;25.00;99.90;;;;;;5127905;28;20047;-68
2023/06/16 12:43:33;;;;;;;12.68;8.30;;;25.20;99.90;;;;;;5128056;28;20030;-69
2023/06/16 12:46:07;;;;;;;16.00;9.13;;;25.40;99.90;;;;;;5127845;28;20023;-69
2023/06/16 12:48:44;;;;;;;19.70;12.55;;;25.30;99.90;;;;;;5127595;28;20027;-69
2023/06/16 12:51:20;;;;;;;12.45;9.63;;;25.10;99.90;;;;;;5127446;28;20579;-69
2023/06/16 12:53:53;;;;;;;15.20;9.88;;;24.80;99.90;;;;;;5127931;29;20480;-74
2023/06/16 12:56:27;;;;;;;13.43;9.20;;;25.00;99.90;;;;;;5127745;28;20396;-71
2023/06/16 12:59:10;;;;;;;14.93;9.13;;;24.90;99.90;;;;;;5127426;28;20041;-76
2023/06/16 13:01:46;;;;;;;16.42;9.45;;;25.10;99.90;;;;;;5126934;28;20039;-76
2023/06/16 13:04:21;;;;;;;14.88;8.75;;;25.30;99.90;;;;;;5127463;28;20118;-68
2023/06/16 13:07:00;;;;;;;12.77;8.63;;;25.40;99.90;;;;;;5127284;28;20041;-69
2023/06/16 13:09:34;;;;;;;11.77;8.48;;;25.60;99.90;;;;;;5127488;28;20030;-68
2023/06/16 13:12:08;;;;;;;13.13;8.55;;;25.60;99.90;;;;;;5127814;28;20046;-75
2023/06/16 13:14:42;;;;;;;11.43;8.45;;;25.40;99.90;;;;;;5136432;28;20475;-75